METAR stanice u blizini

 

LYBE - Beograd / Surčin, Srbija
Ažurirano: 07/07/2020 21:30
Vedro
Vedro
 Pravac vetra ZJZ
Vetar: ZJZ 6 km/h
Temperatura: 17°C
Tačka rose: 13°C
Vlažnost: 77%
Pritisak: 1018 hPa
Pregled: Vedro
Vidljivost: greater than 10 km
2020/07/07 19:30 LYBE 071930Z 24003KT CAVOK 17/13 Q1018 NOSIG
LYBT - Beograd / Batajnica, Srbija
Ažurirano: 07/07/2020 21:30
Vedro
Vedro
 Pravac vetra JI
Vetar: JI 4 km/h
Temperatura: 15°C
Tačka rose: 12°C
Vlažnost: 82%
Pritisak: 1017 hPa
Pregled: Vedro
Vidljivost: greater than 10 km
2020/07/07 19:30 LYBT 071930Z 14002KT CAVOK 15/12 Q1017 NOSIG
LYVR - Vršac, Srbija
Ažurirano: 07/07/2020 21:30
Vedro
Vedro
 Pravac vetra varies
Vetar: varies 6 km/h
Temperatura: 16°C
Tačka rose: 10°C
Vlažnost: 68%
Pritisak: 1017 hPa
Pregled: Vedro
Vidljivost: greater than 10 km
2020/07/07 19:30 LYVR 071930Z AUTO VRB03KT CAVOK 16/10 Q1017
 
LYKV - Lađevci, Srbija
Ažurirano: 07/07/2020 21:30
Partly Cloudy
Partly Cloudy
 Pravac vetra varies
Vetar: varies 4 km/h
Temperatura: 17°C
Tačka rose: 14°C
Vlažnost: 83%
Pritisak: 1018 hPa
Oblaci: Partly Cloudy
Vidljivost: 10 km
Cloud details: Partly Cloudy 1524 m
2020/07/07 19:30 LYKV 071930Z VRB02KT 9999 SCT050 17/14 Q1018 NOSIG
LYNI - Niš, Srbija
Ažurirano: 07/07/2020 21:30
Mostly Cloudy
Mostly Cloudy
 Pravac vetra varies
Vetar: varies 4 km/h
Temperatura: 16°C
Tačka rose: 12°C
Vlažnost: 77%
Pritisak: 1017 hPa
Oblaci: Mostly Cloudy
Vidljivost: 10 km
Cloud details: Mostly Cloudy 1006 m
2020/07/07 19:30 LYNI 071930Z VRB02KT 9999 BKN033 16/12 Q1017 NOSIG
BKPR - Priština, Srbija
Ažurirano: 07/07/2020 21:30
Mostly Cloudy
Mostly Cloudy
 Pravac vetra S
Vetar: S 11 km/h
Temperatura: 15°C
Tačka rose: 9°C
Vlažnost: 68%
Pritisak: 1018 hPa
Oblaci: Mostly Cloudy
Vidljivost: 10 km
Cloud details: Partly Cloudy 1067 m
Mostly Cloudy 1524 m
2020/07/07 19:30 BKPR 071930Z 01006KT 9999 SCT035 BKN050 15/09 Q1018 NOSIG
 
LHPP - Pecs / Pogany, Hungary
Ažurirano: 07/07/2020 18:45
NOT Current
Vedro
Vedro
 Pravac vetra SSZ
Vetar: SSZ 19 km/h
Temperatura: 22°C
Tačka rose: 8°C
Vlažnost: 41%
Pritisak: 1017 hPa
Pregled: Vedro
Vidljivost: greater than 10 km
2020/07/07 16:45 LHPP 071645Z 34010KT CAVOK 22/08 Q1017
LHUD - Szeged, Hungary
Ažurirano: 04/07/2019 01:45
NOT Current
Vedro
Vedro
 Pravac vetra S
Vetar: S 7 km/h
Temperatura: 18°C
Tačka rose: 13°C
Vlažnost: 73%
Pritisak: 1019 hPa
Pregled: Vedro
Vidljivost: greater than 10 km
2019/07/03 23:45 LHUD 032345Z 35004KT CAVOK 18/13 Q1019
LRTR - Timisoara, Romania
Ažurirano: 07/07/2020 21:30
Vedro
Vedro
 Pravac vetra SSZ
Vetar: SSZ 6 km/h
Temperatura: 14°C
Tačka rose: 12°C
Vlažnost: 88%
Pritisak: 1017 hPa
Pregled: Vedro
Vidljivost: greater than 10 km
2020/07/07 19:30 LRTR 071930Z 33003KT CAVOK 14/12 Q1017
 
LRCV - Craiova, Romania
Ažurirano: 07/07/2020 21:30
Vedro
Vedro
 Pravac vetra ZSZ
Vetar: ZSZ 17 km/h
Temperatura: 17°C
Tačka rose: 11°C
Vlažnost: 68%
Pritisak: 1012 hPa
Pregled: Vedro
Vidljivost: greater than 10 km
2020/07/07 19:30 LRCV 071930Z 29009KT CAVOK 17/11 Q1012
LBSF - Sofia, Bulgaria
Ažurirano: 07/07/2020 21:30
Oblačno
Oblačno
 Pravac vetra Z
Vetar: Z 24 km/h
Temperatura: 16°C
Tačka rose: 11°C
Vlažnost: 72%
Pritisak: 1016 hPa
Oblaci: Oblačno
Vidljivost: 10 km
Cloud details: Partly Cloudy 823 m
Mostly Cloudy 1463 m
Oblačno 2286 m
2020/07/07 19:30 LBSF 071930Z 28013KT 9999 SCT027 BKN048 OVC075 16/11 Q1016 NOSIG
LWSK - Skoplje, Makedonija
Ažurirano: 07/07/2020 21:30
Oblačno
Oblačno
 Pravac vetra S
Vetar: S 30 km/h
Temperatura: 19°C
Tačka rose: 10°C
Vlažnost: 56%
Pritisak: 1016 hPa
Oblaci: Oblačno
Vidljivost: 10 km
Cloud details: Oblačno 1829 m
2020/07/07 19:30 LWSK 071930Z 36016KT 9999 OVC060 19/10 Q1016 NOSIG
 
LYPG - Podgorica, Crna Gora
Ažurirano: 07/07/2020 21:30
Vedro
Vedro
 Pravac vetra SSI
Vetar: SSI 26 km/h
Temperatura: 22°C
Tačka rose: 8°C
Vlažnost: 41%
Pritisak: 1013 hPa
Pregled: Vedro
Vidljivost: greater than 10 km
2020/07/07 19:30 LYPG 071930Z 03014KT 350V060 CAVOK 22/08 Q1013 NOSIG
LQSA - Sarajevo, Bosna i Hercegovina
Ažurirano: 07/07/2020 21:00
Mostly Cloudy
Mostly Cloudy
 Pravac vetra varies
Vetar: varies 2 km/h
Temperatura: 16°C
Tačka rose: 10°C
Vlažnost: 68%
Pritisak: 1019 hPa
Oblaci: Mostly Cloudy
Vidljivost: 10 km
Cloud details: Mostly Cloudy 1524 m
2020/07/07 19:00 LQSA 071900Z VRB01KT 9999 BKN050 16/10 Q1019
LDOS - Osijek, Hrvatksa
Ažurirano: 07/07/2020 21:00
Vedro
Vedro
 Pravac vetra SSZ
Vetar: SSZ 13 km/h
Temperatura: 17°C
Tačka rose: 10°C
Vlažnost: 64%
Pritisak: 1017 hPa
Pregled: Vedro
Vidljivost: greater than 10 km
2020/07/07 19:00 LDOS 071900Z 34007KT CAVOK 17/10 Q1017